Time;durP1;ratioP1;P1;durP2;ratioP2;P2;SDS_P1;SDS_P2;PMS_P1;PMS_P2;Temp;Humidity;BMP_temperature;BMP_pressure;BME280_temperature;BME280_humidity;BME280_pressure;Samples;Min_cycle;Max_cycle;Signal;HPM_P1;HPM_P2
2023/09/10 00:00:07;;;;;;;10.47;8.43;;;23.00;99.90;;;;;;4954844;28;20229;-77
2023/09/10 00:02:33;;;;;;;10.10;7.60;;;23.00;99.90;;;;;;4937175;28;20225;-76
2023/09/10 00:04:58;;;;;;;10.10;8.70;;;23.00;99.90;;;;;;4936153;28;21178;-78
2023/09/10 00:07:24;;;;;;;9.40;8.37;;;23.00;99.90;;;;;;4937210;28;20225;-77
2023/09/10 00:09:49;;;;;;;8.83;7.93;;;23.00;99.90;;;;;;4932454;28;20336;-76
2023/09/10 00:12:15;;;;;;;8.63;7.70;;;23.00;99.90;;;;;;4935666;28;20344;-76
2023/09/10 00:14:41;;;;;;;12.67;9.40;;;23.00;99.90;;;;;;4923206;28;20339;-77
2023/09/10 00:17:07;;;;;;;9.63;8.60;;;22.90;99.90;;;;;;4940739;28;20249;-77
2023/09/10 00:19:32;;;;;;;9.63;8.63;;;22.90;99.90;;;;;;4941717;28;20233;-77
2023/09/10 00:21:58;;;;;;;10.43;8.70;;;22.90;99.90;;;;;;4917260;28;20233;-78
2023/09/10 00:24:24;;;;;;;13.13;8.37;;;22.90;99.90;;;;;;4935273;28;20218;-75
2023/09/10 00:26:49;;;;;;;12.93;8.60;;;22.80;99.90;;;;;;4936842;28;20225;-76
2023/09/10 00:29:15;;;;;;;10.40;8.67;;;22.80;99.90;;;;;;4956042;28;20233;-76
2023/09/10 00:31:40;;;;;;;13.33;9.43;;;22.80;99.90;;;;;;4921571;28;20273;-76
2023/09/10 00:34:06;;;;;;;11.80;9.40;;;22.80;99.90;;;;;;4940072;28;20265;-76
2023/09/10 00:36:34;;;;;;;10.60;9.27;;;22.80;99.90;;;;;;4956291;28;20234;-79
2023/09/10 00:39:00;;;;;;;9.27;8.30;;;22.80;99.90;;;;;;4938183;28;20250;-76
2023/09/10 00:41:25;;;;;;;11.37;8.40;;;22.80;99.90;;;;;;4957043;28;20469;-78
2023/09/10 00:43:51;;;;;;;9.30;8.40;;;22.70;99.90;;;;;;4953333;28;20222;-77
2023/09/10 00:46:17;;;;;;;9.57;8.50;;;22.70;99.90;;;;;;4953782;28;20223;-76
2023/09/10 00:48:44;;;;;;;12.00;8.97;;;22.70;99.90;;;;;;4937748;28;21040;-76
2023/09/10 00:51:09;;;;;;;8.70;7.90;;;22.70;99.90;;;;;;4955710;28;20225;-77
2023/09/10 00:53:35;;;;;;;11.83;9.30;;;22.70;99.90;;;;;;4936114;28;20560;-77
2023/09/10 00:56:02;;;;;;;9.43;8.63;;;22.60;99.90;;;;;;4932212;28;20605;-78
2023/09/10 00:58:28;;;;;;;13.10;8.50;;;22.60;99.90;;;;;;4954481;28;20234;-77
2023/09/10 01:00:54;;;;;;;10.33;8.50;;;22.50;99.90;;;;;;4920908;28;20477;-78
2023/09/10 01:03:20;;;;;;;9.10;8.00;;;22.50;99.90;;;;;;4944418;28;20491;-77
2023/09/10 01:05:46;;;;;;;14.97;8.93;;;22.50;99.90;;;;;;4950547;28;20226;-76
2023/09/10 01:08:12;;;;;;;9.70;8.53;;;22.50;99.90;;;;;;4945496;28;20970;-75
2023/09/10 01:10:45;;;;;;;9.10;8.20;;;22.50;99.90;;;;;;4958225;28;20226;-77
2023/09/10 01:13:33;;;;;;;12.23;8.10;;;22.40;99.90;;;;;;4948409;28;20324;-76
2023/09/10 01:16:06;;;;;;;10.90;8.60;;;22.40;99.90;;;;;;4935722;28;20567;-76
2023/09/10 01:18:42;;;;;;;13.13;8.93;;;22.40;99.90;;;;;;4945120;28;20484;-77
2023/09/10 01:21:30;;;;;;;9.40;8.43;;;22.30;99.90;;;;;;4943270;28;20465;-76
2023/09/10 01:24:29;;;;;;;9.53;8.60;;;22.30;99.90;;;;;;4941983;28;20507;-77
2023/09/10 01:26:56;;;;;;;10.27;9.27;;;22.30;99.90;;;;;;4925194;28;20558;-77
2023/09/10 01:29:22;;;;;;;9.77;8.47;;;22.30;99.90;;;;;;4944258;28;20458;-75
2023/09/10 01:31:52;;;;;;;9.83;8.50;;;22.30;99.90;;;;;;4958192;28;20508;-77
2023/09/10 01:34:25;;;;;;;8.73;7.80;;;22.30;99.90;;;;;;4944006;28;20799;-76
2023/09/10 01:37:01;;;;;;;10.50;8.13;;;22.20;99.90;;;;;;4929363;28;20991;-77
2023/09/10 01:39:36;;;;;;;12.20;9.23;;;22.20;99.90;;;;;;4945053;28;20483;-76
2023/09/10 01:42:05;;;;;;;8.87;7.83;;;22.10;99.90;;;;;;4921504;28;20468;-78
2023/09/10 01:44:32;;;;;;;9.10;8.30;;;22.10;99.90;;;;;;4946782;28;21274;-77
2023/09/10 01:46:59;;;;;;;11.67;10.63;;;22.10;99.90;;;;;;4942645;28;20544;-77
2023/09/10 01:49:25;;;;;;;13.67;8.00;;;22.10;99.90;;;;;;4944893;28;21073;-76
2023/09/10 01:51:51;;;;;;;10.50;9.03;;;22.00;99.90;;;;;;4942765;28;20481;-76
2023/09/10 01:54:16;;;;;;;11.77;8.70;;;22.10;99.90;;;;;;4945686;28;20465;-77
2023/09/10 01:56:42;;;;;;;10.37;7.93;;;22.00;99.90;;;;;;4958033;28;20234;-77
2023/09/10 01:59:08;;;;;;;10.03;8.67;;;22.00;99.90;;;;;;4961428;28;20305;-77
2023/09/10 02:01:35;;;;;;;12.10;8.67;;;22.00;99.90;;;;;;4938087;28;20226;-77
2023/09/10 02:04:00;;;;;;;11.97;8.50;;;22.00;99.90;;;;;;4937467;28;21088;-77
2023/09/10 02:06:26;;;;;;;10.77;8.40;;;22.00;99.90;;;;;;4942365;28;20269;-76
2023/09/10 02:08:52;;;;;;;9.97;8.97;;;21.90;99.90;;;;;;4944236;28;20226;-77
2023/09/10 02:11:19;;;;;;;10.87;8.27;;;21.80;99.90;;;;;;4960593;28;20233;-77
2023/09/10 02:13:45;;;;;;;11.80;8.00;;;21.80;99.90;;;;;;4940752;28;20211;-76
2023/09/10 02:16:12;;;;;;;10.27;9.10;;;21.90;99.90;;;;;;4960644;28;21086;-77
2023/09/10 02:18:38;;;;;;;10.23;9.23;;;21.80;99.90;;;;;;4937353;28;20599;-76
2023/09/10 02:21:13;;;;;;;9.70;8.80;;;21.80;99.90;;;;;;4950705;28;20312;-77
2023/09/10 02:23:42;;;;;;;10.47;8.87;;;21.80;99.90;;;;;;4947439;28;20225;-77
2023/09/10 02:26:08;;;;;;;10.50;8.83;;;21.80;99.90;;;;;;4943663;28;20508;-78
2023/09/10 02:28:34;;;;;;;11.03;9.40;;;21.80;99.90;;;;;;4944316;28;21344;-78
2023/09/10 02:31:08;;;;;;;9.77;8.77;;;21.70;99.90;;;;;;4948888;28;20345;-79
2023/09/10 02:33:35;;;;;;;9.70;8.63;;;21.70;99.90;;;;;;4932107;28;20226;-76
2023/09/10 02:36:02;;;;;;;10.20;8.50;;;21.70;99.90;;;;;;4941540;28;21120;-76
2023/09/10 02:38:28;;;;;;;8.50;7.70;;;21.60;99.90;;;;;;4957964;28;20513;-76
2023/09/10 02:40:55;;;;;;;10.90;7.80;;;21.60;99.90;;;;;;4917832;28;20491;-78
2023/09/10 02:43:21;;;;;;;9.53;8.60;;;21.60;99.90;;;;;;4946459;28;20245;-77
2023/09/10 02:45:47;;;;;;;9.40;8.00;;;21.60;99.90;;;;;;4942135;28;20481;-77
2023/09/10 02:48:12;;;;;;;9.13;7.77;;;21.50;99.90;;;;;;4944055;28;20247;-77
2023/09/10 02:50:41;;;;;;;8.90;8.00;;;21.50;99.90;;;;;;4936753;28;20273;-76
2023/09/10 02:53:07;;;;;;;7.33;6.63;;;21.50;99.90;;;;;;4949948;28;20473;-75
2023/09/10 02:55:32;;;;;;;9.13;8.20;;;21.50;99.90;;;;;;4944747;28;20233;-76
2023/09/10 02:57:58;;;;;;;9.33;7.67;;;21.50;99.90;;;;;;4955669;28;20238;-77
2023/09/10 03:00:25;;;;;;;9.43;7.83;;;21.40;99.90;;;;;;4943137;28;20230;-77
2023/09/10 03:03:00;;;;;;;16.70;8.37;;;21.40;99.90;;;;;;4920859;28;20462;-75
2023/09/10 03:05:25;;;;;;;9.77;7.47;;;21.40;99.90;;;;;;4939867;28;20508;-77
2023/09/10 03:07:52;;;;;;;9.70;8.47;;;21.40;99.90;;;;;;4940797;28;20473;-77
2023/09/10 03:10:19;;;;;;;10.20;6.90;;;21.40;99.90;;;;;;4932407;28;20234;-77
2023/09/10 03:12:45;;;;;;;8.23;7.43;;;21.30;99.90;;;;;;4955647;28;20465;-77
2023/09/10 03:15:11;;;;;;;8.97;8.07;;;21.30;99.90;;;;;;4943179;28;20466;-77
2023/09/10 03:17:37;;;;;;;9.23;8.33;;;21.30;99.90;;;;;;4940514;28;20896;-76
2023/09/10 03:20:04;;;;;;;8.63;7.37;;;21.20;99.90;;;;;;4956740;28;20599;-75
2023/09/10 03:22:30;;;;;;;11.00;8.03;;;21.20;99.90;;;;;;4932745;28;20274;-76
2023/09/10 03:24:57;;;;;;;8.63;7.83;;;21.20;99.90;;;;;;4945805;28;20467;-77
2023/09/10 03:27:22;;;;;;;8.70;7.80;;;21.20;99.90;;;;;;4926502;28;20230;-76
2023/09/10 03:29:48;;;;;;;7.90;7.20;;;21.10;99.90;;;;;;4935824;28;20478;-77
2023/09/10 03:32:14;;;;;;;10.47;7.70;;;21.20;99.90;;;;;;4944088;28;20235;-78
2023/09/10 03:34:42;;;;;;;13.10;8.13;;;21.10;99.90;;;;;;4954902;28;20744;-76
2023/09/10 03:37:08;;;;;;;9.27;8.03;;;21.10;99.90;;;;;;4939524;28;20234;-76
2023/09/10 03:39:36;;;;;;;8.77;7.83;;;21.10;99.90;;;;;;4959723;28;20509;-76
2023/09/10 03:42:02;;;;;;;8.00;7.20;;;21.10;99.90;;;;;;4955717;28;20544;-76
2023/09/10 03:44:28;;;;;;;10.17;7.87;;;21.00;99.90;;;;;;4948110;28;20505;-76
2023/09/10 03:46:54;;;;;;;8.73;7.23;;;21.00;99.90;;;;;;4926234;28;20546;-77
2023/09/10 03:49:20;;;;;;;15.73;6.93;;;20.90;99.90;;;;;;4941967;28;20227;-77
2023/09/10 03:51:48;;;;;;;9.40;8.07;;;20.90;99.90;;;;;;4940394;28;20288;-75
2023/09/10 03:54:14;;;;;;;9.10;7.00;;;20.80;99.90;;;;;;4943819;28;20450;-78
2023/09/10 03:56:41;;;;;;;9.10;7.67;;;20.80;99.90;;;;;;4946387;28;20498;-76
2023/09/10 03:59:07;;;;;;;7.60;6.80;;;20.80;99.90;;;;;;4959555;28;20233;-77
2023/09/10 04:01:34;;;;;;;14.30;8.17;;;20.80;99.90;;;;;;4941669;28;20533;-77
2023/09/10 04:04:00;;;;;;;10.20;9.00;;;20.70;99.90;;;;;;4938622;28;20461;-75
2023/09/10 04:06:26;;;;;;;9.60;8.67;;;20.80;99.90;;;;;;4957748;28;20476;-77
2023/09/10 04:08:51;;;;;;;9.20;7.50;;;20.80;99.90;;;;;;4939659;28;20257;-75
2023/09/10 04:11:17;;;;;;;9.37;8.30;;;20.80;99.90;;;;;;4942345;28;20446;-75
2023/09/10 04:13:43;;;;;;;8.63;7.17;;;20.70;99.90;;;;;;4955404;28;20717;-77
2023/09/10 04:16:09;;;;;;;11.43;8.53;;;20.70;99.90;;;;;;4927240;28;20256;-76
2023/09/10 04:18:34;;;;;;;8.50;7.60;;;20.60;99.90;;;;;;4926956;28;20663;-77
2023/09/10 04:21:04;;;;;;;8.80;7.90;;;20.60;99.90;;;;;;4938085;28;21023;-76
2023/09/10 04:23:30;;;;;;;8.50;7.57;;;20.60;99.90;;;;;;4942898;28;20840;-77
2023/09/10 04:25:55;;;;;;;18.57;8.47;;;20.60;99.90;;;;;;4939594;28;20991;-76
2023/09/10 04:28:21;;;;;;;8.63;7.53;;;20.70;99.90;;;;;;4928609;28;20482;-77
2023/09/10 04:30:47;;;;;;;9.30;8.00;;;20.70;99.90;;;;;;4938875;28;20730;-76
2023/09/10 04:33:16;;;;;;;9.20;7.90;;;20.60;99.90;;;;;;4941543;28;20802;-77
2023/09/10 04:35:50;;;;;;;9.10;8.20;;;20.60;99.90;;;;;;4941191;28;20803;-77
2023/09/10 04:38:17;;;;;;;9.73;7.93;;;20.60;99.90;;;;;;4964117;28;20485;-76
2023/09/10 04:40:44;;;;;;;10.67;7.23;;;20.60;99.90;;;;;;4944319;28;20493;-76
2023/09/10 04:43:09;;;;;;;9.27;8.37;;;20.60;99.90;;;;;;4948654;28;20595;-77
2023/09/10 04:45:36;;;;;;;8.83;7.90;;;20.60;99.90;;;;;;4949579;28;20224;-77
2023/09/10 04:48:05;;;;;;;8.33;7.00;;;20.60;99.90;;;;;;4946434;28;20466;-77
2023/09/10 04:50:31;;;;;;;9.60;6.97;;;20.50;99.90;;;;;;4964315;28;20273;-74
2023/09/10 04:53:00;;;;;;;9.97;7.83;;;20.50;99.90;;;;;;4962056;28;20458;-74
2023/09/10 04:55:26;;;;;;;10.80;8.07;;;20.40;99.90;;;;;;4932079;28;20469;-74
2023/09/10 04:57:52;;;;;;;8.07;7.27;;;20.40;99.90;;;;;;4945651;28;20547;-74
2023/09/10 05:00:17;;;;;;;10.97;7.67;;;20.40;99.90;;;;;;4953719;28;20701;-75
2023/09/10 05:02:43;;;;;;;10.27;8.23;;;20.40;99.90;;;;;;4961160;28;20254;-74
2023/09/10 05:05:09;;;;;;;10.07;7.20;;;20.40;99.90;;;;;;4965647;28;20799;-74
2023/09/10 05:07:35;;;;;;;13.20;7.53;;;20.30;99.90;;;;;;4947830;28;20222;-75
2023/09/10 05:10:00;;;;;;;9.77;7.77;;;20.30;99.90;;;;;;4925742;28;20314;-74
2023/09/10 05:12:26;;;;;;;10.63;7.50;;;20.30;99.90;;;;;;4946256;28;20333;-75
2023/09/10 05:14:52;;;;;;;10.20;7.23;;;20.30;99.90;;;;;;4942459;28;20281;-74
2023/09/10 05:17:17;;;;;;;9.27;7.83;;;20.20;99.90;;;;;;4950289;28;20245;-75
2023/09/10 05:19:43;;;;;;;7.97;7.20;;;20.30;99.90;;;;;;4946304;28;20221;-75
2023/09/10 05:22:10;;;;;;;8.20;7.40;;;20.30;99.90;;;;;;4948248;28;20261;-73
2023/09/10 05:24:36;;;;;;;8.03;7.23;;;20.30;99.90;;;;;;4962454;28;20469;-75
2023/09/10 05:27:02;;;;;;;9.43;8.17;;;20.30;99.90;;;;;;4927841;28;20659;-74
2023/09/10 05:29:28;;;;;;;12.83;7.97;;;20.30;99.90;;;;;;4947054;28;20230;-74
2023/09/10 05:31:54;;;;;;;8.27;7.47;;;20.20;99.90;;;;;;4959647;28;20482;-74
2023/09/10 05:34:20;;;;;;;14.53;8.27;;;20.20;99.90;;;;;;4959532;28;20253;-74
2023/09/10 05:36:45;;;;;;;8.43;7.43;;;20.20;99.90;;;;;;4939959;28;20233;-74
2023/09/10 05:39:11;;;;;;;8.70;6.90;;;20.20;99.90;;;;;;4954702;28;20226;-74
2023/09/10 05:41:37;;;;;;;8.70;7.80;;;20.20;99.90;;;;;;4926826;28;20255;-73
2023/09/10 05:44:03;;;;;;;11.40;7.30;;;20.20;99.90;;;;;;4939917;28;20238;-75
2023/09/10 05:46:30;;;;;;;8.63;6.97;;;20.20;99.90;;;;;;4949032;28;20243;-75
2023/09/10 05:48:55;;;;;;;10.07;8.47;;;20.20;99.90;;;;;;4927781;28;20555;-75
2023/09/10 05:51:21;;;;;;;13.23;8.13;;;20.20;99.90;;;;;;4961371;28;20245;-75
2023/09/10 05:53:46;;;;;;;9.17;8.07;;;20.20;99.90;;;;;;4942400;28;20230;-74
2023/09/10 05:56:13;;;;;;;9.37;7.90;;;20.30;99.90;;;;;;4944262;28;20230;-73
2023/09/10 05:58:39;;;;;;;10.57;7.90;;;20.30;99.90;;;;;;4937071;28;20227;-74
2023/09/10 06:01:04;;;;;;;8.33;7.30;;;20.30;99.90;;;;;;4939926;28;20505;-74
2023/09/10 06:03:30;;;;;;;8.90;7.60;;;20.20;99.90;;;;;;4957946;28;20218;-74
2023/09/10 06:05:58;;;;;;;9.80;7.63;;;20.20;99.90;;;;;;4927600;28;20262;-73
2023/09/10 06:08:24;;;;;;;8.10;7.30;;;20.20;99.90;;;;;;4939591;28;20220;-75
2023/09/10 06:10:50;;;;;;;8.40;7.50;;;20.20;99.90;;;;;;4941413;28;21074;-74
2023/09/10 06:13:15;;;;;;;11.57;7.83;;;20.20;99.90;;;;;;4959989;28;20377;-72
2023/09/10 06:15:41;;;;;;;8.63;7.60;;;20.20;99.90;;;;;;4953144;28;20265;-74
2023/09/10 06:18:07;;;;;;;9.20;8.03;;;20.20;99.90;;;;;;4949116;28;20921;-75
2023/09/10 06:20:34;;;;;;;10.67;7.87;;;20.20;99.90;;;;;;4944624;28;20469;-73
2023/09/10 06:22:59;;;;;;;9.63;7.63;;;20.30;99.90;;;;;;4929392;28;20226;-74
2023/09/10 06:25:26;;;;;;;8.10;7.27;;;20.30;99.90;;;;;;4942639;28;20490;-75
2023/09/10 06:27:52;;;;;;;9.63;7.43;;;20.30;99.90;;;;;;4922637;28;20222;-74
2023/09/10 06:30:18;;;;;;;11.80;8.27;;;20.30;99.90;;;;;;4940434;28;20502;-75
2023/09/10 06:32:43;;;;;;;8.23;7.50;;;20.30;99.90;;;;;;4926830;28;20334;-75
2023/09/10 06:35:09;;;;;;;7.37;6.67;;;20.40;99.90;;;;;;4944457;28;20227;-75
2023/09/10 06:37:36;;;;;;;12.30;8.30;;;20.40;99.90;;;;;;4941916;28;20227;-75
2023/09/10 06:40:02;;;;;;;8.33;7.33;;;20.40;99.90;;;;;;4936625;28;20827;-74
2023/09/10 06:42:28;;;;;;;8.93;8.03;;;20.50;99.90;;;;;;4923671;28;20222;-74
2023/09/10 06:45:14;;;;;;;7.93;7.13;;;20.50;99.90;;;;;;4944219;28;20462;-74
2023/09/10 06:47:40;;;;;;;9.77;7.53;;;20.50;99.90;;;;;;4938457;28;20873;-74
2023/09/10 06:50:06;;;;;;;8.50;7.70;;;20.60;99.90;;;;;;4942750;28;20274;-75
2023/09/10 06:52:32;;;;;;;9.43;8.17;;;20.60;99.90;;;;;;4945696;28;20222;-75
2023/09/10 06:54:57;;;;;;;10.53;8.10;;;20.60;99.90;;;;;;4955153;28;21871;-74
2023/09/10 06:57:23;;;;;;;10.30;8.50;;;20.70;99.90;;;;;;4943104;28;20265;-75
2023/09/10 06:59:49;;;;;;;7.93;7.17;;;20.70;99.90;;;;;;4941995;28;20232;-75
2023/09/10 07:02:14;;;;;;;9.50;8.60;;;20.70;99.90;;;;;;4942753;28;20815;-74
2023/09/10 07:04:47;;;;;;;9.73;7.50;;;20.80;99.90;;;;;;4939092;28;20253;-75
2023/09/10 07:07:15;;;;;;;15.30;8.60;;;20.80;99.90;;;;;;4945308;28;20900;-75
2023/09/10 07:09:41;;;;;;;9.67;8.57;;;20.80;99.90;;;;;;4936289;28;20480;-75
2023/09/10 07:12:07;;;;;;;10.43;8.93;;;20.90;99.90;;;;;;4947919;28;20499;-73
2023/09/10 07:14:33;;;;;;;9.27;8.37;;;21.00;99.90;;;;;;4936853;28;20222;-74
2023/09/10 07:16:58;;;;;;;8.50;7.60;;;21.00;99.90;;;;;;4940922;28;20241;-75
2023/09/10 07:19:24;;;;;;;9.27;8.43;;;21.10;99.90;;;;;;4958471;28;20265;-75
2023/09/10 07:21:49;;;;;;;8.93;8.03;;;21.10;99.90;;;;;;4956096;28;20409;-75
2023/09/10 07:24:15;;;;;;;9.10;7.60;;;21.20;99.90;;;;;;4945259;28;20291;-73
2023/09/10 07:26:41;;;;;;;10.00;8.83;;;21.20;99.90;;;;;;4920068;28;20365;-74
2023/09/10 07:29:08;;;;;;;8.90;8.00;;;21.30;99.90;;;;;;4942744;28;20233;-74
2023/09/10 07:31:35;;;;;;;9.43;7.43;;;21.40;99.90;;;;;;4942079;28;20230;-75
2023/09/10 07:34:01;;;;;;;8.90;8.00;;;21.50;99.90;;;;;;4938398;28;20567;-74
2023/09/10 07:36:27;;;;;;;14.17;8.90;;;21.60;99.90;;;;;;4944211;28;20605;-74
2023/09/10 07:38:54;;;;;;;10.10;8.50;;;21.70;99.90;;;;;;4958117;28;20469;-75
2023/09/10 07:41:20;;;;;;;8.30;7.50;;;21.80;99.90;;;;;;4948242;28;20230;-75
2023/09/10 07:43:46;;;;;;;10.87;8.33;;;21.80;99.90;;;;;;4955596;28;20470;-75
2023/09/10 07:46:12;;;;;;;10.50;7.90;;;21.90;99.90;;;;;;4943403;28;20500;-73
2023/09/10 07:48:38;;;;;;;9.23;8.30;;;21.90;99.90;;;;;;4943665;28;20229;-75
2023/09/10 07:51:04;;;;;;;9.27;8.23;;;22.00;99.90;;;;;;4957677;28;20233;-75
2023/09/10 07:53:29;;;;;;;8.40;7.67;;;22.10;99.90;;;;;;4957054;28;20559;-75
2023/09/10 07:55:56;;;;;;;9.93;8.93;;;22.10;99.90;;;;;;4930898;28;20826;-75
2023/09/10 07:58:22;;;;;;;10.13;8.40;;;22.30;99.90;;;;;;4941130;28;20233;-74
2023/09/10 08:00:47;;;;;;;10.63;8.63;;;22.30;99.90;;;;;;4939784;28;20536;-74
2023/09/10 08:03:14;;;;;;;11.03;9.43;;;22.40;99.90;;;;;;4942650;28;20588;-73
2023/09/10 08:05:41;;;;;;;9.77;8.83;;;22.50;99.90;;;;;;4955761;28;20226;-75
2023/09/10 08:08:06;;;;;;;11.73;8.10;;;22.60;99.90;;;;;;4943795;28;20480;-73
2023/09/10 08:10:33;;;;;;;9.83;8.93;;;22.70;99.90;;;;;;4927916;28;20504;-75
2023/09/10 08:12:59;;;;;;;9.77;8.40;;;22.80;99.90;;;;;;4939321;28;20233;-75
2023/09/10 08:15:25;;;;;;;9.07;8.17;;;22.90;99.90;;;;;;4942789;28;20473;-74
2023/09/10 08:17:55;;;;;;;12.10;8.87;;;23.00;99.90;;;;;;4927343;28;20520;-73
2023/09/10 08:20:21;;;;;;;11.40;8.40;;;23.20;99.90;;;;;;4942642;28;20275;-74
2023/09/10 08:22:47;;;;;;;10.07;8.67;;;23.40;99.90;;;;;;4940785;28;20561;-75
2023/09/10 08:25:13;;;;;;;9.63;8.73;;;23.40;99.90;;;;;;4955961;28;20496;-75
2023/09/10 08:27:40;;;;;;;9.20;8.10;;;23.50;99.90;;;;;;4955324;28;20233;-76
2023/09/10 08:30:07;;;;;;;13.40;8.97;;;23.50;99.90;;;;;;4942771;28;21005;-75
2023/09/10 08:32:33;;;;;;;10.30;7.93;;;23.60;99.90;;;;;;4922320;28;20465;-75
2023/09/10 08:34:59;;;;;;;11.10;8.30;;;23.70;99.90;;;;;;4940050;28;20464;-74
2023/09/10 08:37:25;;;;;;;9.50;7.97;;;23.80;99.90;;;;;;4942305;28;20493;-75
2023/09/10 08:39:51;;;;;;;13.27;9.10;;;24.00;99.90;;;;;;4948938;28;20556;-74
2023/09/10 08:42:37;;;;;;;8.93;7.93;;;24.10;99.90;;;;;;4946927;28;20253;-73
2023/09/10 08:45:07;;;;;;;9.30;8.40;;;24.20;99.90;;;;;;4938417;28;20516;-76
2023/09/10 08:47:40;;;;;;;10.20;8.87;;;24.40;99.90;;;;;;4945158;28;20623;-75
2023/09/10 08:50:09;;;;;;;9.70;8.77;;;24.50;99.90;;;;;;4954874;28;20472;-74
2023/09/10 08:52:45;;;;;;;8.93;8.23;;;24.70;99.90;;;;;;4940927;28;20464;-76
2023/09/10 08:55:12;;;;;;;9.83;8.83;;;24.70;99.90;;;;;;4928947;28;20574;-75
2023/09/10 08:57:45;;;;;;;10.07;7.80;;;24.80;99.90;;;;;;4946052;28;20488;-76
2023/09/10 09:00:12;;;;;;;12.73;9.27;;;24.90;99.90;;;;;;4936514;28;20464;-76
2023/09/10 09:02:45;;;;;;;10.20;8.33;;;25.00;99.90;;;;;;4942260;28;20473;-75
2023/09/10 09:05:11;;;;;;;10.27;9.27;;;25.10;99.90;;;;;;4943155;28;20464;-75
2023/09/10 09:07:54;;;;;;;9.70;8.80;;;25.30;99.90;;;;;;4941160;28;20481;-74
2023/09/10 09:10:25;;;;;;;10.60;9.63;;;25.60;99.90;;;;;;4942097;28;20683;-75
2023/09/10 09:12:56;;;;;;;9.40;8.50;;;25.60;99.90;;;;;;4955947;28;20470;-75
2023/09/10 09:15:21;;;;;;;8.70;7.93;;;25.60;99.90;;;;;;4942250;28;20599;-75
2023/09/10 09:17:48;;;;;;;11.40;8.90;;;25.80;99.90;;;;;;4940372;28;20689;-75
2023/09/10 09:20:16;;;;;;;9.23;8.17;;;25.80;99.90;;;;;;4946271;28;20356;-74
2023/09/10 09:22:49;;;;;;;10.10;9.10;;;26.00;99.90;;;;;;4962873;28;20465;-75
2023/09/10 09:25:16;;;;;;;9.83;8.77;;;26.20;99.90;;;;;;4958501;28;20572;-74
2023/09/10 09:27:43;;;;;;;8.73;7.60;;;26.30;99.90;;;;;;4946559;28;20472;-76
2023/09/10 09:30:09;;;;;;;12.80;9.03;;;26.30;99.90;;;;;;4949393;28;20926;-76
2023/09/10 09:32:37;;;;;;;9.73;8.70;;;26.40;99.90;;;;;;4952938;28;20489;-76
2023/09/10 09:35:03;;;;;;;9.60;8.63;;;26.70;99.90;;;;;;4952848;28;21089;-76
2023/09/10 09:37:33;;;;;;;8.80;8.00;;;26.60;99.90;;;;;;4949578;28;21006;-75
2023/09/10 09:40:09;;;;;;;10.17;9.07;;;26.70;99.90;;;;;;4929896;28;20468;-75
2023/09/10 09:42:36;;;;;;;11.97;8.87;;;26.70;99.90;;;;;;4949211;28;20566;-77
2023/09/10 09:45:02;;;;;;;9.77;8.80;;;26.80;99.90;;;;;;4954761;28;20458;-75
2023/09/10 09:47:30;;;;;;;10.07;8.63;;;27.00;99.90;;;;;;4966450;28;20230;-74
2023/09/10 09:49:56;;;;;;;9.67;8.87;;;27.00;99.90;;;;;;4963193;28;20681;-75
2023/09/10 09:52:22;;;;;;;9.87;9.00;;;27.10;99.90;;;;;;4954972;28;20474;-75
2023/09/10 09:54:48;;;;;;;12.17;8.90;;;27.20;99.90;;;;;;4949607;28;20582;-76
2023/09/10 09:57:14;;;;;;;11.50;9.60;;;27.20;99.90;;;;;;4948664;28;20238;-75
2023/09/10 09:59:40;;;;;;;10.03;8.30;;;27.20;99.90;;;;;;4949890;28;20605;-74
2023/09/10 10:02:14;;;;;;;12.75;9.30;;;27.30;99.90;;;;;;4964989;28;20254;-75
2023/09/10 10:04:44;;;;;;;13.53;12.13;;;27.40;99.90;;;;;;4948959;28;20234;-75
2023/09/10 10:07:11;;;;;;;8.30;7.57;;;27.40;99.90;;;;;;4950589;28;20234;-76
2023/09/10 10:09:40;;;;;;;10.43;9.43;;;27.50;99.90;;;;;;4962996;28;20929;-76
2023/09/10 10:12:07;;;;;;;9.80;8.90;;;27.60;99.90;;;;;;4961352;28;20733;-75
2023/09/10 10:14:34;;;;;;;9.73;8.77;;;27.60;99.90;;;;;;4947872;28;20226;-74
2023/09/10 10:17:03;;;;;;;9.73;8.88;;;27.70;99.90;;;;;;4947242;28;20241;-76
2023/09/10 10:19:30;;;;;;;9.98;8.98;;;27.80;99.90;;;;;;4963427;28;20339;-76
2023/09/10 10:21:56;;;;;;;9.02;7.38;;;28.00;99.90;;;;;;4962799;28;20236;-75
2023/09/10 10:24:23;;;;;;;10.05;9.10;;;28.30;99.90;;;;;;4947462;28;20222;-75
2023/09/10 10:26:49;;;;;;;8.80;7.90;;;28.40;99.90;;;;;;4946470;28;21224;-74
2023/09/10 10:29:18;;;;;;;9.85;8.85;;;28.50;99.90;;;;;;4952339;28;20214;-76
2023/09/10 10:31:47;;;;;;;10.18;9.27;;;28.50;99.90;;;;;;4947561;28;20218;-76
2023/09/10 10:34:21;;;;;;;9.80;8.80;;;28.70;99.90;;;;;;4944977;28;20390;-76
2023/09/10 10:37:01;;;;;;;9.60;8.55;;;29.00;99.90;;;;;;4946929;28;20237;-76
2023/09/10 10:39:57;;;;;;;8.85;8.05;;;29.00;99.90;;;;;;4946967;28;20229;-76
2023/09/10 10:42:36;;;;;;;9.25;8.35;;;29.10;99.90;;;;;;4947334;28;20308;-75
2023/09/10 10:45:06;;;;;;;10.35;8.43;;;29.50;99.90;;;;;;4948045;28;20253;-76
2023/09/10 10:47:38;;;;;;;8.57;7.68;;;29.70;99.90;;;;;;4945137;28;20434;-75
2023/09/10 10:50:07;;;;;;;10.77;8.57;;;29.80;99.90;;;;;;4954343;28;20226;-76
2023/09/10 10:52:34;;;;;;;9.95;8.63;;;30.00;99.90;;;;;;4954519;28;20233;-75
2023/09/10 10:55:00;;;;;;;9.15;8.30;;;30.00;99.90;;;;;;4933404;28;20264;-75
2023/09/10 10:57:27;;;;;;;9.23;8.40;;;30.00;99.90;;;;;;4944742;28;20238;-76
2023/09/10 10:59:53;;;;;;;9.48;8.60;;;29.90;99.90;;;;;;4953766;28;20315;-76
2023/09/10 11:02:21;;;;;;;12.15;8.98;;;29.80;99.90;;;;;;4964122;28;20234;-76
2023/09/10 11:05:01;;;;;;;9.50;8.50;;;29.90;99.90;;;;;;4964038;28;20231;-75
2023/09/10 11:07:29;;;;;;;9.38;8.55;;;30.00;99.90;;;;;;4949710;28;20233;-77
2023/09/10 11:09:57;;;;;;;11.02;9.23;;;30.30;99.90;;;;;;4961912;28;21051;-75
2023/09/10 11:12:24;;;;;;;9.85;8.73;;;30.50;99.90;;;;;;4944413;28;20418;-76
2023/09/10 11:15:06;;;;;;;10.90;8.88;;;30.40;99.90;;;;;;4948204;28;20269;-75
2023/09/10 11:17:33;;;;;;;11.27;8.45;;;30.30;99.90;;;;;;4963369;28;20236;-76
2023/09/10 11:19:59;;;;;;;10.35;8.32;;;30.20;99.90;;;;;;4947700;28;20236;-75
2023/09/10 11:22:26;;;;;;;9.90;8.35;;;30.10;99.90;;;;;;4948588;28;20225;-76
2023/09/10 11:25:01;;;;;;;9.43;8.52;;;30.10;99.90;;;;;;4934054;28;20340;-75
2023/09/10 11:27:27;;;;;;;12.43;7.88;;;29.90;99.90;;;;;;4953074;28;20256;-76
2023/09/10 11:30:15;;;;;;;9.55;8.27;;;30.00;99.90;;;;;;4962566;28;20226;-76
2023/09/10 11:32:42;;;;;;;10.13;7.20;;;30.30;99.90;;;;;;4942714;28;20225;-76
2023/09/10 11:35:16;;;;;;;10.20;7.80;;;30.60;99.90;;;;;;4948324;28;20504;-76
2023/09/10 11:37:45;;;;;;;10.15;7.22;;;30.80;99.90;;;;;;4942206;28;20315;-75
2023/09/10 11:40:12;;;;;;;8.77;7.28;;;31.00;99.90;;;;;;4964416;28;20222;-76
2023/09/10 11:42:41;;;;;;;8.50;6.68;;;31.20;99.90;;;;;;4963495;28;20226;-75
2023/09/10 11:45:08;;;;;;;9.00;7.75;;;31.30;99.90;;;;;;4964383;28;20237;-77
2023/09/10 11:47:35;;;;;;;14.35;7.60;;;31.30;99.90;;;;;;4945187;28;20268;-75
2023/09/10 11:50:04;;;;;;;7.57;6.53;;;31.10;99.90;;;;;;4948505;28;20774;-76
2023/09/10 11:52:31;;;;;;;6.85;6.22;;;31.30;99.90;;;;;;4944438;28;20264;-76
2023/09/10 11:54:57;;;;;;;10.95;6.82;;;31.20;99.90;;;;;;4959447;28;20226;-75
2023/09/10 11:57:23;;;;;;;7.28;6.57;;;31.10;99.90;;;;;;4960517;28;20234;-76
2023/09/10 11:59:52;;;;;;;8.63;7.05;;;31.00;99.90;;;;;;4950998;28;20946;-76
2023/09/10 12:02:20;;;;;;;10.95;7.20;;;31.30;99.90;;;;;;4946080;28;20729;-75
2023/09/10 12:04:46;;;;;;;7.32;6.38;;;31.20;99.90;;;;;;4944236;28;21100;-74
2023/09/10 12:07:12;;;;;;;7.97;6.50;;;31.30;99.90;;;;;;4951934;28;20227;-74
2023/09/10 12:09:38;;;;;;;8.27;7.55;;;31.60;99.90;;;;;;4943592;28;20305;-77
2023/09/10 12:12:17;;;;;;;7.20;6.57;;;31.80;99.80;;;;;;4959961;28;20439;-77
2023/09/10 12:14:43;;;;;;;12.43;8.80;;;31.90;99.90;;;;;;4940448;28;20994;-76
2023/09/10 12:17:09;;;;;;;7.85;6.88;;;31.90;99.60;;;;;;4960368;28;20226;-75
2023/09/10 12:19:36;;;;;;;7.97;7.20;;;31.90;99.60;;;;;;4928754;28;20257;-76
2023/09/10 12:22:04;;;;;;;8.73;7.30;;;31.80;99.90;;;;;;4959458;28;20303;-75
2023/09/10 12:24:30;;;;;;;6.40;5.90;;;31.80;99.90;;;;;;4925447;28;20903;-76
2023/09/10 12:26:56;;;;;;;12.10;7.13;;;31.90;99.80;;;;;;4945424;28;20217;-75
2023/09/10 12:29:22;;;;;;;12.07;7.70;;;31.70;99.10;;;;;;4945043;28;20353;-75
2023/09/10 12:31:52;;;;;;;8.88;7.45;;;32.10;98.70;;;;;;4941189;28;20242;-76
2023/09/10 12:34:19;;;;;;;7.72;6.93;;;32.20;98.90;;;;;;4961138;28;20300;-76
2023/09/10 12:36:46;;;;;;;13.85;6.95;;;31.90;98.60;;;;;;4949603;28;20229;-76
2023/09/10 12:39:26;;;;;;;8.63;7.75;;;32.00;98.60;;;;;;4929275;28;20351;-76
2023/09/10 12:41:54;;;;;;;9.07;7.22;;;32.30;98.00;;;;;;4940862;28;20268;-76
2023/09/10 12:44:20;;;;;;;9.43;7.38;;;32.60;98.10;;;;;;4945853;28;20222;-77